sensor_id;sensor_type;location;lat;lon;timestamp;temperature;humidity
23769;DHT22;12064;50.890;5.424;2023-03-14T00:07:24;18.20;82.70
23769;DHT22;12064;50.890;5.424;2023-03-14T00:16:15;18.20;82.70
23769;DHT22;12064;50.890;5.424;2023-03-14T00:25:07;18.10;82.80
23769;DHT22;12064;50.890;5.424;2023-03-14T00:33:58;18.10;83.00
23769;DHT22;12064;50.890;5.424;2023-03-14T00:42:48;18.10;83.10
23769;DHT22;12064;50.890;5.424;2023-03-14T00:51:39;18.10;83.20
23769;DHT22;12064;50.890;5.424;2023-03-14T01:00:30;18.00;83.30
23769;DHT22;12064;50.890;5.424;2023-03-14T01:09:21;18.00;83.30
23769;DHT22;12064;50.890;5.424;2023-03-14T01:18:11;18.00;83.40
23769;DHT22;12064;50.890;5.424;2023-03-14T01:27:02;18.00;83.60
23769;DHT22;12064;50.890;5.424;2023-03-14T01:35:53;17.90;83.70
23769;DHT22;12064;50.890;5.424;2023-03-14T01:44:49;17.90;83.90
23769;DHT22;12064;50.890;5.424;2023-03-14T01:53:41;17.90;84.00
23769;DHT22;12064;50.890;5.424;2023-03-14T02:02:33;17.90;83.90
23769;DHT22;12064;50.890;5.424;2023-03-14T02:11:27;17.90;84.20
23769;DHT22;12064;50.890;5.424;2023-03-14T02:29:15;17.80;84.40
23769;DHT22;12064;50.890;5.424;2023-03-14T02:47:11;17.80;84.70
23769;DHT22;12064;50.890;5.424;2023-03-14T02:56:02;17.80;84.70
23769;DHT22;12064;50.890;5.424;2023-03-14T03:04:53;17.70;84.90
23769;DHT22;12064;50.890;5.424;2023-03-14T03:13:43;17.70;85.10
23769;DHT22;12064;50.890;5.424;2023-03-14T03:22:37;17.70;85.20
23769;DHT22;12064;50.890;5.424;2023-03-14T03:31:29;17.70;85.30
23769;DHT22;12064;50.890;5.424;2023-03-14T03:40:19;17.70;85.30
23769;DHT22;12064;50.890;5.424;2023-03-14T03:49:10;17.70;85.40
23769;DHT22;12064;50.890;5.424;2023-03-14T03:58:01;17.60;85.50
23769;DHT22;12064;50.890;5.424;2023-03-14T04:06:51;17.60;85.60
23769;DHT22;12064;50.890;5.424;2023-03-14T04:15:44;17.60;85.70
23769;DHT22;12064;50.890;5.424;2023-03-14T04:24:35;17.60;85.80
23769;DHT22;12064;50.890;5.424;2023-03-14T04:33:26;17.60;85.60
23769;DHT22;12064;50.890;5.424;2023-03-14T04:42:16;17.50;85.80
23769;DHT22;12064;50.890;5.424;2023-03-14T04:51:07;17.50;86.20
23769;DHT22;12064;50.890;5.424;2023-03-14T04:59:58;17.40;86.60
23769;DHT22;12064;50.890;5.424;2023-03-14T05:08:48;17.30;86.90
23769;DHT22;12064;50.890;5.424;2023-03-14T05:17:39;17.20;87.20
23769;DHT22;12064;50.890;5.424;2023-03-14T05:26:30;17.30;87.50
23769;DHT22;12064;50.890;5.424;2023-03-14T05:35:21;17.20;87.50
23769;DHT22;12064;50.890;5.424;2023-03-14T05:44:11;17.20;87.50
23769;DHT22;12064;50.890;5.424;2023-03-14T05:53:02;17.20;87.80
23769;DHT22;12064;50.890;5.424;2023-03-14T06:01:53;17.20;87.80
23769;DHT22;12064;50.890;5.424;2023-03-14T06:10:44;17.20;87.60
23769;DHT22;12064;50.890;5.424;2023-03-14T06:19:34;17.20;87.50
23769;DHT22;12064;50.890;5.424;2023-03-14T06:28:25;17.20;87.30
23769;DHT22;12064;50.890;5.424;2023-03-14T06:37:16;17.20;87.20
23769;DHT22;12064;50.890;5.424;2023-03-14T06:46:06;17.20;87.10
23769;DHT22;12064;50.890;5.424;2023-03-14T06:54:57;17.20;87.40
23769;DHT22;12064;50.890;5.424;2023-03-14T07:03:48;17.20;87.00
23769;DHT22;12064;50.890;5.424;2023-03-14T07:12:38;17.10;86.00
23769;DHT22;12064;50.890;5.424;2023-03-14T07:21:29;17.30;85.30
23769;DHT22;12064;50.890;5.424;2023-03-14T07:30:22;17.30;85.50
23769;DHT22;12064;50.890;5.424;2023-03-14T07:39:13;17.40;85.70
23769;DHT22;12064;50.890;5.424;2023-03-14T07:48:03;17.30;86.80
23769;DHT22;12064;50.890;5.424;2023-03-14T07:56:54;17.20;87.20
23769;DHT22;12064;50.890;5.424;2023-03-14T08:05:47;17.20;87.00
23769;DHT22;12064;50.890;5.424;2023-03-14T08:14:38;17.30;87.10
23769;DHT22;12064;50.890;5.424;2023-03-14T08:23:29;17.30;87.00
23769;DHT22;12064;50.890;5.424;2023-03-14T08:32:19;17.20;86.80
23769;DHT22;12064;50.890;5.424;2023-03-14T08:41:10;17.20;86.80
23769;DHT22;12064;50.890;5.424;2023-03-14T08:50:01;17.30;86.80
23769;DHT22;12064;50.890;5.424;2023-03-14T08:58:52;17.20;86.80
23769;DHT22;12064;50.890;5.424;2023-03-14T09:07:43;17.30;86.60
23769;DHT22;12064;50.890;5.424;2023-03-14T09:16:34;17.20;86.50
23769;DHT22;12064;50.890;5.424;2023-03-14T09:25:24;17.20;86.40
23769;DHT22;12064;50.890;5.424;2023-03-14T09:34:15;17.20;86.30
23769;DHT22;12064;50.890;5.424;2023-03-14T09:43:08;17.20;86.30
23769;DHT22;12064;50.890;5.424;2023-03-14T09:52:02;17.30;86.20
23769;DHT22;12064;50.890;5.424;2023-03-14T10:00:55;17.30;85.80
23769;DHT22;12064;50.890;5.424;2023-03-14T10:09:49;17.30;85.60
23769;DHT22;12064;50.890;5.424;2023-03-14T10:18:44;17.30;85.40
23769;DHT22;12064;50.890;5.424;2023-03-14T10:27:35;17.30;85.30
23769;DHT22;12064;50.890;5.424;2023-03-14T10:36:31;17.30;85.10
23769;DHT22;12064;50.890;5.424;2023-03-14T10:54:24;17.30;85.00
23769;DHT22;12064;50.890;5.424;2023-03-14T11:03:16;17.20;85.30
23769;DHT22;12064;50.890;5.424;2023-03-14T11:21:24;17.20;85.90
23769;DHT22;12064;50.890;5.424;2023-03-14T11:39:18;17.20;85.80
23769;DHT22;12064;50.890;5.424;2023-03-14T11:57:16;17.20;85.70
23769;DHT22;12064;50.890;5.424;2023-03-14T12:06:25;17.10;85.80
23769;DHT22;12064;50.890;5.424;2023-03-14T12:15:22;17.10;85.80
23769;DHT22;12064;50.890;5.424;2023-03-14T12:24:19;17.20;85.80
23769;DHT22;12064;50.890;5.424;2023-03-14T12:33:19;17.20;85.70
23769;DHT22;12064;50.890;5.424;2023-03-14T12:42:18;17.20;85.70
23769;DHT22;12064;50.890;5.424;2023-03-14T12:51:20;17.20;86.00
23769;DHT22;12064;50.890;5.424;2023-03-14T13:00:18;17.10;85.90
23769;DHT22;12064;50.890;5.424;2023-03-14T13:18:37;17.10;86.00
23769;DHT22;12064;50.890;5.424;2023-03-14T13:27:30;17.00;86.20
23769;DHT22;12064;50.890;5.424;2023-03-14T13:36:22;16.90;86.20
23769;DHT22;12064;50.890;5.424;2023-03-14T13:45:13;17.00;86.20
23769;DHT22;12064;50.890;5.424;2023-03-14T13:54:14;17.00;86.20
23769;DHT22;12064;50.890;5.424;2023-03-14T14:03:10;16.90;86.20
23769;DHT22;12064;50.890;5.424;2023-03-14T14:12:06;16.90;86.10
23769;DHT22;12064;50.890;5.424;2023-03-14T14:21:01;16.90;86.10
23769;DHT22;12064;50.890;5.424;2023-03-14T14:39:11;17.00;85.90
23769;DHT22;12064;50.890;5.424;2023-03-14T14:48:09;16.90;85.90
23769;DHT22;12064;50.890;5.424;2023-03-14T14:57:05;16.90;85.90
23769;DHT22;12064;50.890;5.424;2023-03-14T15:05:55;16.90;86.00
23769;DHT22;12064;50.890;5.424;2023-03-14T15:14:46;16.90;86.10
23769;DHT22;12064;50.890;5.424;2023-03-14T15:23:38;16.90;86.10
23769;DHT22;12064;50.890;5.424;2023-03-14T15:32:29;16.90;86.20
23769;DHT22;12064;50.890;5.424;2023-03-14T15:41:21;16.90;86.20
23769;DHT22;12064;50.890;5.424;2023-03-14T15:50:12;16.90;86.20
23769;DHT22;12064;50.890;5.424;2023-03-14T15:59:03;16.80;86.20
23769;DHT22;12064;50.890;5.424;2023-03-14T16:07:53;16.80;86.00
23769;DHT22;12064;50.890;5.424;2023-03-14T16:16:44;16.80;85.80
23769;DHT22;12064;50.890;5.424;2023-03-14T16:25:34;16.80;85.80
23769;DHT22;12064;50.890;5.424;2023-03-14T16:34:25;16.80;86.10
23769;DHT22;12064;50.890;5.424;2023-03-14T16:43:16;16.80;86.10
23769;DHT22;12064;50.890;5.424;2023-03-14T16:52:07;16.70;86.00
23769;DHT22;12064;50.890;5.424;2023-03-14T17:00:58;16.70;86.00
23769;DHT22;12064;50.890;5.424;2023-03-14T17:09:49;16.70;85.90
23769;DHT22;12064;50.890;5.424;2023-03-14T17:18:41;16.70;86.00
23769;DHT22;12064;50.890;5.424;2023-03-14T17:27:31;16.70;86.00
23769;DHT22;12064;50.890;5.424;2023-03-14T17:36:22;16.70;85.80
23769;DHT22;12064;50.890;5.424;2023-03-14T17:45:16;16.70;86.00
23769;DHT22;12064;50.890;5.424;2023-03-14T17:54:06;16.60;86.00
23769;DHT22;12064;50.890;5.424;2023-03-14T18:02:57;16.60;86.20
23769;DHT22;12064;50.890;5.424;2023-03-14T18:11:49;16.60;86.20
23769;DHT22;12064;50.890;5.424;2023-03-14T18:20:40;16.60;86.30
23769;DHT22;12064;50.890;5.424;2023-03-14T18:29:31;16.60;86.40
23769;DHT22;12064;50.890;5.424;2023-03-14T18:38:21;16.50;86.50
23769;DHT22;12064;50.890;5.424;2023-03-14T18:47:12;16.50;86.60
23769;DHT22;12064;50.890;5.424;2023-03-14T18:56:03;16.50;86.50
23769;DHT22;12064;50.890;5.424;2023-03-14T19:04:54;16.50;86.70
23769;DHT22;12064;50.890;5.424;2023-03-14T19:13:44;16.50;86.70
23769;DHT22;12064;50.890;5.424;2023-03-14T19:22:36;16.40;86.60
23769;DHT22;12064;50.890;5.424;2023-03-14T19:31:26;16.40;86.70
23769;DHT22;12064;50.890;5.424;2023-03-14T19:40:17;16.40;86.80
23769;DHT22;12064;50.890;5.424;2023-03-14T19:49:08;16.40;86.70
23769;DHT22;12064;50.890;5.424;2023-03-14T19:57:58;16.40;86.90
23769;DHT22;12064;50.890;5.424;2023-03-14T20:06:49;16.40;87.00
23769;DHT22;12064;50.890;5.424;2023-03-14T20:15:42;16.40;86.90
23769;DHT22;12064;50.890;5.424;2023-03-14T20:24:33;16.30;86.90
23769;DHT22;12064;50.890;5.424;2023-03-14T20:33:24;16.30;87.20
23769;DHT22;12064;50.890;5.424;2023-03-14T20:42:15;16.30;87.20
23769;DHT22;12064;50.890;5.424;2023-03-14T20:51:06;16.30;87.10
23769;DHT22;12064;50.890;5.424;2023-03-14T20:59:57;16.20;87.20
23769;DHT22;12064;50.890;5.424;2023-03-14T21:08:48;16.20;87.40
23769;DHT22;12064;50.890;5.424;2023-03-14T21:17:39;16.20;87.50
23769;DHT22;12064;50.890;5.424;2023-03-14T21:26:31;16.20;87.50
23769;DHT22;12064;50.890;5.424;2023-03-14T21:35:22;16.30;87.60
23769;DHT22;12064;50.890;5.424;2023-03-14T21:44:12;16.20;87.80
23769;DHT22;12064;50.890;5.424;2023-03-14T21:53:05;16.20;87.90
23769;DHT22;12064;50.890;5.424;2023-03-14T22:01:56;16.20;87.70
23769;DHT22;12064;50.890;5.424;2023-03-14T22:10:49;16.20;87.90
23769;DHT22;12064;50.890;5.424;2023-03-14T22:19:40;16.20;87.80
23769;DHT22;12064;50.890;5.424;2023-03-14T22:28:34;16.10;87.90
23769;DHT22;12064;50.890;5.424;2023-03-14T22:37:24;16.10;88.00
23769;DHT22;12064;50.890;5.424;2023-03-14T22:46:15;16.00;87.90
23769;DHT22;12064;50.890;5.424;2023-03-14T22:55:06;16.10;87.90
23769;DHT22;12064;50.890;5.424;2023-03-14T23:03:57;16.10;88.00
23769;DHT22;12064;50.890;5.424;2023-03-14T23:12:48;16.00;88.00
23769;DHT22;12064;50.890;5.424;2023-03-14T23:21:39;16.00;88.20
23769;DHT22;12064;50.890;5.424;2023-03-14T23:30:29;16.00;88.30
23769;DHT22;12064;50.890;5.424;2023-03-14T23:39:20;15.90;88.30
23769;DHT22;12064;50.890;5.424;2023-03-14T23:48:11;16.00;88.30
23769;DHT22;12064;50.890;5.424;2023-03-14T23:57:01;16.00;88.20
